sensor_id;sensor_type;location;lat;lon;timestamp;pressure;altitude;pressure_sealevel;temperature;humidity
6393;BME280;3229;42.674;23.282;2022-10-31T00:01:02;95076.22;;;15.75;56.67
6393;BME280;3229;42.674;23.282;2022-10-31T00:03:28;95080.09;;;15.79;56.58
6393;BME280;3229;42.674;23.282;2022-10-31T00:05:55;95116.53;;;16.01;56.58
6393;BME280;3229;42.674;23.282;2022-10-31T00:08:22;95117.50;;;16.00;56.75
6393;BME280;3229;42.674;23.282;2022-10-31T00:10:51;95120.25;;;15.98;56.63
6393;BME280;3229;42.674;23.282;2022-10-31T00:13:18;95117.69;;;15.98;56.77
6393;BME280;3229;42.674;23.282;2022-10-31T00:15:44;95120.41;;;15.97;56.76
6393;BME280;3229;42.674;23.282;2022-10-31T00:18:11;95073.19;;;15.72;56.62
6393;BME280;3229;42.674;23.282;2022-10-31T00:20:38;95105.59;;;15.91;56.77
6393;BME280;3229;42.674;23.282;2022-10-31T00:23:06;95114.78;;;15.93;56.84
6393;BME280;3229;42.674;23.282;2022-10-31T00:25:35;95121.56;;;15.94;56.89
6393;BME280;3229;42.674;23.282;2022-10-31T00:28:04;95120.25;;;15.90;56.93
6393;BME280;3229;42.674;23.282;2022-10-31T00:30:31;95114.78;;;15.93;56.84
6393;BME280;3229;42.674;23.282;2022-10-31T00:32:58;95105.09;;;15.87;56.87
6393;BME280;3229;42.674;23.282;2022-10-31T00:35:25;95113.94;;;15.93;56.90
6393;BME280;3229;42.674;23.282;2022-10-31T00:37:52;95115.91;;;15.91;56.99
6393;BME280;3229;42.674;23.282;2022-10-31T00:40:19;95096.22;;;15.82;56.89
6393;BME280;3229;42.674;23.282;2022-10-31T00:42:46;95047.00;;;15.50;56.89
6393;BME280;3229;42.674;23.282;2022-10-31T00:45:14;95110.06;;;15.89;56.89
6393;BME280;3229;42.674;23.282;2022-10-31T00:47:41;95113.63;;;15.88;56.84
6393;BME280;3229;42.674;23.282;2022-10-31T00:50:08;95105.91;;;15.88;56.80
6393;BME280;3229;42.674;23.282;2022-10-31T00:52:36;95059.09;;;15.58;57.06
6393;BME280;3229;42.674;23.282;2022-10-31T00:55:03;95101.88;;;15.85;56.89
6393;BME280;3229;42.674;23.282;2022-10-31T00:57:30;95099.13;;;15.78;57.20
6393;BME280;3229;42.674;23.282;2022-10-31T00:59:57;95107.03;;;15.85;57.22
6393;BME280;3229;42.674;23.282;2022-10-31T01:02:25;95109.63;;;15.85;56.98
6393;BME280;3229;42.674;23.282;2022-10-31T01:04:52;95110.56;;;15.84;56.94
6393;BME280;3229;42.674;23.282;2022-10-31T01:07:22;95054.75;;;15.50;57.14
6393;BME280;3229;42.674;23.282;2022-10-31T01:09:49;95096.72;;;15.77;57.10
6393;BME280;3229;42.674;23.282;2022-10-31T01:12:15;95101.69;;;15.78;57.28
6393;BME280;3229;42.674;23.282;2022-10-31T01:14:43;95110.72;;;15.83;57.22
6393;BME280;3229;42.674;23.282;2022-10-31T01:17:10;95092.66;;;15.66;57.24
6393;BME280;3229;42.674;23.282;2022-10-31T01:19:39;95098.97;;;15.72;56.99
6393;BME280;3229;42.674;23.282;2022-10-31T01:22:06;95083.94;;;15.59;57.23
6393;BME280;3229;42.674;23.282;2022-10-31T01:24:33;95123.78;;;15.81;57.23
6393;BME280;3229;42.674;23.282;2022-10-31T01:27:00;95113.47;;;15.73;57.21
6393;BME280;3229;42.674;23.282;2022-10-31T01:29:27;95120.25;;;15.82;57.21
6393;BME280;3229;42.674;23.282;2022-10-31T01:31:54;95066.81;;;15.50;57.23
6393;BME280;3229;42.674;23.282;2022-10-31T01:34:21;95090.72;;;15.68;57.18
6393;BME280;3229;42.674;23.282;2022-10-31T01:36:49;95101.53;;;15.72;57.35
6393;BME280;3229;42.674;23.282;2022-10-31T01:39:17;95064.41;;;15.56;57.12
6393;BME280;3229;42.674;23.282;2022-10-31T01:41:47;95063.44;;;15.57;57.22
6393;BME280;3229;42.674;23.282;2022-10-31T01:44:51;95119.59;;;15.96;57.25
6393;BME280;3229;42.674;23.282;2022-10-31T01:47:21;95116.88;;;15.90;57.12
6393;BME280;3229;42.674;23.282;2022-10-31T01:49:54;95117.03;;;15.96;57.21
6393;BME280;3229;42.674;23.282;2022-10-31T01:52:25;95123.34;;;16.02;57.44
6393;BME280;3229;42.674;23.282;2022-10-31T01:54:58;95116.06;;;15.97;57.47
6393;BME280;3229;42.674;23.282;2022-10-31T01:57:27;95117.84;;;16.05;57.24
6393;BME280;3229;42.674;23.282;2022-10-31T01:59:58;95099.94;;;15.95;57.29
6393;BME280;3229;42.674;23.282;2022-10-31T02:02:27;95126.38;;;16.14;57.28
6393;BME280;3229;42.674;23.282;2022-10-31T02:04:55;95104.44;;;16.01;57.24
6393;BME280;3229;42.674;23.282;2022-10-31T02:07:27;95083.00;;;15.93;57.31
6393;BME280;3229;42.674;23.282;2022-10-31T02:09:55;95123.97;;;16.20;57.42
6393;BME280;3229;42.674;23.282;2022-10-31T02:12:24;95106.53;;;16.14;57.19
6393;BME280;3229;42.674;23.282;2022-10-31T02:14:52;95104.13;;;16.21;57.25
6393;BME280;3229;42.674;23.282;2022-10-31T02:17:19;95068.19;;;15.95;57.25
6393;BME280;3229;42.674;23.282;2022-10-31T02:19:54;95119.63;;;16.29;57.46
6393;BME280;3229;42.674;23.282;2022-10-31T02:22:27;95123.63;;;16.31;57.35
6393;BME280;3229;42.674;23.282;2022-10-31T02:25:06;95117.53;;;16.33;57.38
6393;BME280;3229;42.674;23.282;2022-10-31T02:27:57;95124.63;;;16.30;57.41
6393;BME280;3229;42.674;23.282;2022-10-31T02:30:32;95140.59;;;16.34;57.41
6393;BME280;3229;42.674;23.282;2022-10-31T02:33:19;95136.41;;;16.33;57.58
6393;BME280;3229;42.674;23.282;2022-10-31T02:35:55;95141.22;;;16.36;57.29
6393;BME280;3229;42.674;23.282;2022-10-31T02:38:35;95090.44;;;16.12;57.45
6393;BME280;3229;42.674;23.282;2022-10-31T02:41:10;95142.84;;;16.37;57.46
6393;BME280;3229;42.674;23.282;2022-10-31T02:43:48;95129.94;;;16.29;57.54
6393;BME280;3229;42.674;23.282;2022-10-31T02:46:25;95137.53;;;16.39;57.50
6393;BME280;3229;42.674;23.282;2022-10-31T02:48:59;95130.25;;;16.26;57.69
6393;BME280;3229;42.674;23.282;2022-10-31T02:51:28;95108.00;;;16.17;57.68
6393;BME280;3229;42.674;23.282;2022-10-31T02:53:55;95123.50;;;16.25;57.56
6393;BME280;3229;42.674;23.282;2022-10-31T02:56:21;95133.16;;;16.31;57.63
6393;BME280;3229;42.674;23.282;2022-10-31T02:58:50;95160.44;;;16.42;57.67
6393;BME280;3229;42.674;23.282;2022-10-31T03:01:34;95154.28;;;16.43;57.75
6393;BME280;3229;42.674;23.282;2022-10-31T03:04:20;95133.81;;;16.33;57.58
6393;BME280;3229;42.674;23.282;2022-10-31T03:06:54;95149.13;;;16.43;57.71
6393;BME280;3229;42.674;23.282;2022-10-31T03:09:27;95152.03;;;16.40;58.00
6393;BME280;3229;42.674;23.282;2022-10-31T03:11:58;95163.66;;;16.44;57.64
6393;BME280;3229;42.674;23.282;2022-10-31T03:14:42;95138.81;;;16.26;57.76
6393;BME280;3229;42.674;23.282;2022-10-31T03:17:14;95161.88;;;16.44;57.60
6393;BME280;3229;42.674;23.282;2022-10-31T03:19:47;95147.03;;;16.38;57.78
6393;BME280;3229;42.674;23.282;2022-10-31T03:22:17;95155.91;;;16.44;57.85
6393;BME280;3229;42.674;23.282;2022-10-31T03:24:47;95154.28;;;16.43;57.89
6393;BME280;3229;42.674;23.282;2022-10-31T03:27:17;95165.44;;;16.43;57.85
6393;BME280;3229;42.674;23.282;2022-10-31T03:29:47;95138.00;;;16.26;57.80
6393;BME280;3229;42.674;23.282;2022-10-31T03:32:19;95156.69;;;16.36;57.97
6393;BME280;3229;42.674;23.282;2022-10-31T03:34:49;95167.53;;;16.40;57.96
6393;BME280;3229;42.674;23.282;2022-10-31T03:37:18;95125.75;;;16.12;58.05
6393;BME280;3229;42.674;23.282;2022-10-31T03:39:49;95168.50;;;16.39;58.01
6393;BME280;3229;42.674;23.282;2022-10-31T03:42:20;95172.19;;;16.36;58.03
6393;BME280;3229;42.674;23.282;2022-10-31T03:44:51;95163.97;;;16.24;58.31
6393;BME280;3229;42.674;23.282;2022-10-31T03:47:20;95180.09;;;16.35;58.04
6393;BME280;3229;42.674;23.282;2022-10-31T03:49:48;95158.03;;;16.24;58.00
6393;BME280;3229;42.674;23.282;2022-10-31T03:52:21;95154.47;;;16.17;58.13
6393;BME280;3229;42.674;23.282;2022-10-31T03:54:53;95176.41;;;16.29;58.10
6393;BME280;3229;42.674;23.282;2022-10-31T03:57:25;95178.31;;;16.27;58.25
6393;BME280;3229;42.674;23.282;2022-10-31T03:59:58;95185.56;;;16.23;58.33
6393;BME280;3229;42.674;23.282;2022-10-31T04:02:31;95147.19;;;15.96;58.31
6393;BME280;3229;42.674;23.282;2022-10-31T04:05:01;95185.13;;;16.20;58.50
6393;BME280;3229;42.674;23.282;2022-10-31T04:07:34;95149.94;;;15.94;58.41
6393;BME280;3229;42.674;23.282;2022-10-31T04:10:07;95183.97;;;16.14;58.47
6393;BME280;3229;42.674;23.282;2022-10-31T04:12:36;95185.09;;;16.12;58.55
6393;BME280;3229;42.674;23.282;2022-10-31T04:15:06;95180.56;;;16.05;58.59
6393;BME280;3229;42.674;23.282;2022-10-31T04:17:38;95192.97;;;16.10;58.60
6393;BME280;3229;42.674;23.282;2022-10-31T04:20:08;95188.00;;;16.09;58.73
6393;BME280;3229;42.674;23.282;2022-10-31T04:22:35;95161.53;;;15.90;58.61
6393;BME280;3229;42.674;23.282;2022-10-31T04:25:02;95162.00;;;15.86;58.72
6393;BME280;3229;42.674;23.282;2022-10-31T04:27:29;95198.31;;;16.09;58.69
6393;BME280;3229;42.674;23.282;2022-10-31T04:29:56;95195.72;;;16.09;58.62
6393;BME280;3229;42.674;23.282;2022-10-31T04:32:24;95193.16;;;16.09;58.58
6393;BME280;3229;42.674;23.282;2022-10-31T04:34:53;95158.94;;;15.82;58.72
6393;BME280;3229;42.674;23.282;2022-10-31T04:37:21;95195.91;;;16.07;58.80
6393;BME280;3229;42.674;23.282;2022-10-31T04:39:48;95198.47;;;16.07;58.81
6393;BME280;3229;42.674;23.282;2022-10-31T04:42:15;95193.81;;;16.02;58.81
6393;BME280;3229;42.674;23.282;2022-10-31T04:44:42;95197.81;;;16.05;58.80
6393;BME280;3229;42.674;23.282;2022-10-31T04:47:09;95196.22;;;16.04;58.84
6393;BME280;3229;42.674;23.282;2022-10-31T04:49:35;95196.38;;;16.02;58.99
6393;BME280;3229;42.674;23.282;2022-10-31T04:52:03;95171.81;;;15.82;58.81
6393;BME280;3229;42.674;23.282;2022-10-31T04:54:31;95203.31;;;16.02;58.96
6393;BME280;3229;42.674;23.282;2022-10-31T04:56:58;95198.78;;;15.96;59.00
6393;BME280;3229;42.674;23.282;2022-10-31T04:59:25;95192.47;;;15.90;59.01
6393;BME280;3229;42.674;23.282;2022-10-31T05:01:51;95207.19;;;15.98;59.12
6393;BME280;3229;42.674;23.282;2022-10-31T05:04:18;95201.19;;;15.89;59.13
6393;BME280;3229;42.674;23.282;2022-10-31T05:06:45;95167.59;;;15.65;59.14
6393;BME280;3229;42.674;23.282;2022-10-31T05:09:12;95217.63;;;15.96;59.13
6393;BME280;3229;42.674;23.282;2022-10-31T05:11:40;95223.59;;;15.97;59.12
6393;BME280;3229;42.674;23.282;2022-10-31T05:14:15;95165.59;;;15.59;59.29
6393;BME280;3229;42.674;23.282;2022-10-31T05:16:42;95232.97;;;15.98;59.23
6393;BME280;3229;42.674;23.282;2022-10-31T05:19:09;95215.38;;;15.85;59.26
6393;BME280;3229;42.674;23.282;2022-10-31T05:21:36;95233.78;;;15.98;59.08
6393;BME280;3229;42.674;23.282;2022-10-31T05:24:03;95237.16;;;15.99;59.22
6393;BME280;3229;42.674;23.282;2022-10-31T05:26:30;95232.00;;;15.99;59.30
6393;BME280;3229;42.674;23.282;2022-10-31T05:28:59;95227.81;;;15.98;59.15
6393;BME280;3229;42.674;23.282;2022-10-31T05:31:25;95219.72;;;15.93;59.27
6393;BME280;3229;42.674;23.282;2022-10-31T05:33:53;95235.69;;;15.96;59.24
6393;BME280;3229;42.674;23.282;2022-10-31T05:36:19;95234.09;;;15.95;59.47
6393;BME280;3229;42.674;23.282;2022-10-31T05:38:46;95245.38;;;15.94;59.46
6393;BME280;3229;42.674;23.282;2022-10-31T05:41:13;95243.75;;;15.93;59.50
6393;BME280;3229;42.674;23.282;2022-10-31T05:43:40;95247.16;;;15.94;59.60
6393;BME280;3229;42.674;23.282;2022-10-31T05:46:08;95243.75;;;15.93;59.70
6393;BME280;3229;42.674;23.282;2022-10-31T05:48:36;95252.13;;;15.95;59.51
6393;BME280;3229;42.674;23.282;2022-10-31T05:51:03;95234.06;;;15.87;59.79
6393;BME280;3229;42.674;23.282;2022-10-31T05:53:30;95233.88;;;15.89;59.63
6393;BME280;3229;42.674;23.282;2022-10-31T05:55:57;95249.88;;;16.00;59.55
6393;BME280;3229;42.674;23.282;2022-10-31T05:58:24;95256.19;;;16.06;59.69
6393;BME280;3229;42.674;23.282;2022-10-31T06:00:51;95258.97;;;16.13;59.55
6393;BME280;3229;42.674;23.282;2022-10-31T06:03:20;95258.66;;;16.24;59.63
6393;BME280;3229;42.674;23.282;2022-10-31T06:05:47;95270.00;;;16.64;90.65
6393;BME280;3229;42.674;23.282;2022-10-31T06:08:14;95275.34;;;17.11;95.00
6393;BME280;3229;42.674;23.282;2022-10-31T06:10:41;95254.44;;;17.53;92.29
6393;BME280;3229;42.674;23.282;2022-10-31T06:13:10;95235.84;;;17.97;86.39
6393;BME280;3229;42.674;23.282;2022-10-31T06:15:37;95279.44;;;18.71;82.20
6393;BME280;3229;42.674;23.282;2022-10-31T06:18:07;95265.13;;;19.13;79.16
6393;BME280;3229;42.674;23.282;2022-10-31T06:20:38;95275.16;;;19.68;76.90
6393;BME280;3229;42.674;23.282;2022-10-31T06:23:05;95280.31;;;20.13;74.80
6393;BME280;3229;42.674;23.282;2022-10-31T06:25:35;95270.94;;;20.48;72.89
6393;BME280;3229;42.674;23.282;2022-10-31T06:28:04;95288.19;;;20.98;71.16
6393;BME280;3229;42.674;23.282;2022-10-31T06:30:33;95296.94;;;21.40;69.88
6393;BME280;3229;42.674;23.282;2022-10-31T06:33:03;95278.72;;;21.68;68.81
6393;BME280;3229;42.674;23.282;2022-10-31T06:35:34;95283.72;;;22.11;67.76
6393;BME280;3229;42.674;23.282;2022-10-31T06:38:02;95286.47;;;22.51;66.47
6393;BME280;3229;42.674;23.282;2022-10-31T06:40:29;95295.16;;;22.85;66.12
6393;BME280;3229;42.674;23.282;2022-10-31T06:42:57;95306.84;;;23.22;65.72
6393;BME280;3229;42.674;23.282;2022-10-31T06:45:25;95306.81;;;23.48;64.59
6393;BME280;3229;42.674;23.282;2022-10-31T06:47:53;95303.56;;;23.86;62.86
6393;BME280;3229;42.674;23.282;2022-10-31T06:50:21;95287.16;;;24.24;61.30
6393;BME280;3229;42.674;23.282;2022-10-31T06:52:51;95282.09;;;24.74;60.34
6393;BME280;3229;42.674;23.282;2022-10-31T06:55:23;95307.78;;;25.22;60.50
6393;BME280;3229;42.674;23.282;2022-10-31T06:57:54;95307.00;;;25.40;60.08
6393;BME280;3229;42.674;23.282;2022-10-31T07:00:22;95284.44;;;25.39;59.65
6393;BME280;3229;42.674;23.282;2022-10-31T07:02:55;95310.41;;;25.65;58.94
6393;BME280;3229;42.674;23.282;2022-10-31T07:05:22;95302.97;;;25.62;58.30
6393;BME280;3229;42.674;23.282;2022-10-31T07:07:54;95313.50;;;25.81;57.95
6393;BME280;3229;42.674;23.282;2022-10-31T07:10:24;95312.00;;;25.91;57.33
6393;BME280;3229;42.674;23.282;2022-10-31T07:12:54;95311.91;;;25.98;56.54
6393;BME280;3229;42.674;23.282;2022-10-31T07:15:21;95318.91;;;26.04;55.92
6393;BME280;3229;42.674;23.282;2022-10-31T07:17:50;95311.63;;;26.06;55.74
6393;BME280;3229;42.674;23.282;2022-10-31T07:20:17;95305.34;;;26.07;55.44
6393;BME280;3229;42.674;23.282;2022-10-31T07:22:45;95301.41;;;26.16;55.18
6393;BME280;3229;42.674;23.282;2022-10-31T07:25:12;95303.97;;;26.23;54.91
6393;BME280;3229;42.674;23.282;2022-10-31T07:27:41;95281.25;;;26.17;54.11
6393;BME280;3229;42.674;23.282;2022-10-31T07:30:10;95295.94;;;26.36;54.05
6393;BME280;3229;42.674;23.282;2022-10-31T07:32:40;95249.63;;;26.12;53.34
6393;BME280;3229;42.674;23.282;2022-10-31T07:35:09;95293.22;;;26.43;52.87
6393;BME280;3229;42.674;23.282;2022-10-31T07:37:39;95297.25;;;26.45;52.45
6393;BME280;3229;42.674;23.282;2022-10-31T07:40:14;95264.75;;;26.28;51.89
6393;BME280;3229;42.674;23.282;2022-10-31T07:42:45;95267.19;;;26.30;52.14
6393;BME280;3229;42.674;23.282;2022-10-31T07:45:14;95250.72;;;26.22;51.93
6393;BME280;3229;42.674;23.282;2022-10-31T07:47:42;95292.81;;;26.46;51.71
6393;BME280;3229;42.674;23.282;2022-10-31T07:50:11;95267.63;;;26.26;51.74
6393;BME280;3229;42.674;23.282;2022-10-31T07:52:40;95292.22;;;26.44;51.65
6393;BME280;3229;42.674;23.282;2022-10-31T07:55:43;95278.31;;;26.25;51.11
6393;BME280;3229;42.674;23.282;2022-10-31T07:58:15;95290.91;;;26.16;51.14
6393;BME280;3229;42.674;23.282;2022-10-31T08:00:46;95293.94;;;26.01;51.91
6393;BME280;3229;42.674;23.282;2022-10-31T08:03:24;95291.06;;;26.03;51.98
6393;BME280;3229;42.674;23.282;2022-10-31T08:05:54;95292.38;;;25.94;51.71
6393;BME280;3229;42.674;23.282;2022-10-31T08:08:30;95297.41;;;25.77;52.42
6393;BME280;3229;42.674;23.282;2022-10-31T08:10:57;95259.50;;;25.36;52.47
6393;BME280;3229;42.674;23.282;2022-10-31T08:13:28;95253.44;;;25.17;52.48
6393;BME280;3229;42.674;23.282;2022-10-31T08:15:57;95250.44;;;25.07;52.82
6393;BME280;3229;42.674;23.282;2022-10-31T08:18:29;95282.66;;;25.14;53.25
6393;BME280;3229;42.674;23.282;2022-10-31T08:21:00;95267.06;;;24.94;53.20
6393;BME280;3229;42.674;23.282;2022-10-31T08:23:27;95263.53;;;24.82;53.50
6393;BME280;3229;42.674;23.282;2022-10-31T08:25:54;95298.69;;;24.93;53.23
6393;BME280;3229;42.674;23.282;2022-10-31T08:28:21;95265.03;;;24.65;53.08
6393;BME280;3229;42.674;23.282;2022-10-31T08:30:49;95293.16;;;24.76;52.45
6393;BME280;3229;42.674;23.282;2022-10-31T08:33:24;95293.41;;;24.68;52.51
6393;BME280;3229;42.674;23.282;2022-10-31T08:35:54;95263.34;;;24.45;51.99
6393;BME280;3229;42.674;23.282;2022-10-31T08:38:43;95294.50;;;24.53;51.89
6393;BME280;3229;42.674;23.282;2022-10-31T08:41:13;95282.88;;;24.43;51.55
6393;BME280;3229;42.674;23.282;2022-10-31T08:43:43;95278.88;;;24.34;51.83
6393;BME280;3229;42.674;23.282;2022-10-31T08:46:15;95286.50;;;24.35;52.59
6393;BME280;3229;42.674;23.282;2022-10-31T08:48:48;95255.25;;;24.09;52.80
6393;BME280;3229;42.674;23.282;2022-10-31T08:51:37;95273.75;;;24.14;52.75
6393;BME280;3229;42.674;23.282;2022-10-31T08:54:14;95245.69;;;23.89;53.26
6393;BME280;3229;42.674;23.282;2022-10-31T08:56:47;95293.44;;;24.16;53.68
6393;BME280;3229;42.674;23.282;2022-10-31T08:59:17;95292.03;;;24.14;53.55
6393;BME280;3229;42.674;23.282;2022-10-31T09:01:53;95288.25;;;24.10;53.55
6393;BME280;3229;42.674;23.282;2022-10-31T09:04:23;95292.84;;;24.08;53.89
6393;BME280;3229;42.674;23.282;2022-10-31T09:06:49;95296.47;;;24.07;54.08
6393;BME280;3229;42.674;23.282;2022-10-31T09:09:30;95288.25;;;24.03;54.19
6393;BME280;3229;42.674;23.282;2022-10-31T09:12:01;95218.84;;;23.56;54.18
6393;BME280;3229;42.674;23.282;2022-10-31T09:14:29;95293.88;;;24.00;54.61
6393;BME280;3229;42.674;23.282;2022-10-31T09:17:00;95282.84;;;23.98;54.75
6393;BME280;3229;42.674;23.282;2022-10-31T09:19:27;95280.44;;;23.96;54.82
6393;BME280;3229;42.674;23.282;2022-10-31T09:21:56;95282.84;;;23.98;54.58
6393;BME280;3229;42.674;23.282;2022-10-31T09:24:24;95290.91;;;23.96;54.47
6393;BME280;3229;42.674;23.282;2022-10-31T09:26:51;95275.00;;;23.91;54.48
6393;BME280;3229;42.674;23.282;2022-10-31T09:29:18;95273.59;;;23.95;54.69
6393;BME280;3229;42.674;23.282;2022-10-31T09:31:46;95274.41;;;23.96;54.40
6393;BME280;3229;42.674;23.282;2022-10-31T09:34:17;95239.72;;;23.75;54.18
6393;BME280;3229;42.674;23.282;2022-10-31T09:36:44;95259.78;;;23.88;54.35
6393;BME280;3229;42.674;23.282;2022-10-31T09:39:11;95238.09;;;23.74;54.36
6393;BME280;3229;42.674;23.282;2022-10-31T09:41:59;95276.81;;;23.97;54.55
6393;BME280;3229;42.674;23.282;2022-10-31T09:44:38;95278.41;;;23.98;54.25
6393;BME280;3229;42.674;23.282;2022-10-31T09:47:13;95265.75;;;23.95;54.14
6393;BME280;3229;42.674;23.282;2022-10-31T09:49:55;95254.16;;;23.85;53.77
6393;BME280;3229;42.674;23.282;2022-10-31T09:52:27;95268.56;;;24.00;53.25
6393;BME280;3229;42.674;23.282;2022-10-31T09:54:58;95265.75;;;24.02;53.24
6393;BME280;3229;42.674;23.282;2022-10-31T09:57:31;95273.59;;;24.02;52.99
6393;BME280;3229;42.674;23.282;2022-10-31T10:00:01;95225.44;;;23.78;53.07
6393;BME280;3229;42.674;23.282;2022-10-31T10:02:30;95266.16;;;24.06;54.04
6393;BME280;3229;42.674;23.282;2022-10-31T10:05:09;95259.50;;;24.03;55.52
6393;BME280;3229;42.674;23.282;2022-10-31T10:07:52;95260.47;;;24.09;55.97
6393;BME280;3229;42.674;23.282;2022-10-31T10:10:31;95201.75;;;23.73;55.76
6393;BME280;3229;42.674;23.282;2022-10-31T10:13:15;95219.97;;;23.93;55.74
6393;BME280;3229;42.674;23.282;2022-10-31T10:15:56;95250.22;;;24.14;56.58
6393;BME280;3229;42.674;23.282;2022-10-31T10:18:33;95253.63;;;24.14;56.85
6393;BME280;3229;42.674;23.282;2022-10-31T10:21:16;95248.19;;;24.16;57.11
6393;BME280;3229;42.674;23.282;2022-10-31T10:23:56;95242.97;;;24.16;57.03
6393;BME280;3229;42.674;23.282;2022-10-31T10:26:28;95237.75;;;24.16;57.07
6393;BME280;3229;42.674;23.282;2022-10-31T10:29:03;95239.34;;;24.17;57.13
6393;BME280;3229;42.674;23.282;2022-10-31T10:31:39;95177.00;;;23.82;56.68
6393;BME280;3229;42.674;23.282;2022-10-31T10:34:12;95216.66;;;24.11;56.95
6393;BME280;3229;42.674;23.282;2022-10-31T10:36:47;95227.69;;;24.19;57.28
6393;BME280;3229;42.674;23.282;2022-10-31T10:39:20;95199.97;;;24.12;57.42
6393;BME280;3229;42.674;23.282;2022-10-31T10:41:50;95214.38;;;24.21;57.12
6393;BME280;3229;42.674;23.282;2022-10-31T10:44:37;95221.22;;;24.22;56.46
6393;BME280;3229;42.674;23.282;2022-10-31T10:47:22;95210.75;;;24.22;56.46
6393;BME280;3229;42.674;23.282;2022-10-31T10:50:13;95196.72;;;24.16;56.29
6393;BME280;3229;42.674;23.282;2022-10-31T10:52:48;95199.13;;;24.18;56.82
6393;BME280;3229;42.674;23.282;2022-10-31T10:55:27;95205.72;;;24.27;57.01
6393;BME280;3229;42.674;23.282;2022-10-31T10:57:59;95199.31;;;24.23;57.26
6393;BME280;3229;42.674;23.282;2022-10-31T11:00:29;95208.13;;;24.28;57.40
6393;BME280;3229;42.674;23.282;2022-10-31T11:02:59;95204.47;;;24.29;57.57
6393;BME280;3229;42.674;23.282;2022-10-31T11:05:35;95205.28;;;24.30;57.84
6393;BME280;3229;42.674;23.282;2022-10-31T11:08:06;95178.44;;;24.16;57.82
6393;BME280;3229;42.674;23.282;2022-10-31T11:10:42;95201.47;;;24.33;57.88
6393;BME280;3229;42.674;23.282;2022-10-31T11:13:21;95187.44;;;24.27;58.18
6393;BME280;3229;42.674;23.282;2022-10-31T11:15:57;95194.41;;;24.33;58.21
6393;BME280;3229;42.674;23.282;2022-10-31T11:18:26;95189.59;;;24.30;58.13
6393;BME280;3229;42.674;23.282;2022-10-31T11:20:57;95186.00;;;24.31;57.98
6393;BME280;3229;42.674;23.282;2022-10-31T11:23:32;95157.75;;;24.15;58.00
6393;BME280;3229;42.674;23.282;2022-10-31T11:26:02;95133.50;;;24.01;58.09
6393;BME280;3229;42.674;23.282;2022-10-31T11:28:32;95182.38;;;24.32;58.28
6393;BME280;3229;42.674;23.282;2022-10-31T11:31:06;95181.34;;;24.33;58.54
6393;BME280;3229;42.674;23.282;2022-10-31T11:33:36;95151.28;;;24.17;58.25
6393;BME280;3229;42.674;23.282;2022-10-31T11:36:21;95172.47;;;24.34;58.64
6393;BME280;3229;42.674;23.282;2022-10-31T11:38:50;95158.47;;;24.22;58.43
6393;BME280;3229;42.674;23.282;2022-10-31T11:41:24;95175.31;;;24.33;58.94
6393;BME280;3229;42.674;23.282;2022-10-31T11:43:54;95152.44;;;24.21;58.83
6393;BME280;3229;42.674;23.282;2022-10-31T11:46:25;95172.91;;;24.31;59.00
6393;BME280;3229;42.674;23.282;2022-10-31T11:49:00;95170.50;;;24.29;59.17
6393;BME280;3229;42.674;23.282;2022-10-31T11:51:31;95094.81;;;23.85;58.96
6393;BME280;3229;42.674;23.282;2022-10-31T11:54:02;95112.00;;;23.99;58.93
6393;BME280;3229;42.674;23.282;2022-10-31T11:56:39;95112.00;;;23.99;58.99
6393;BME280;3229;42.674;23.282;2022-10-31T11:59:17;95105.75;;;24.00;59.05
6393;BME280;3229;42.674;23.282;2022-10-31T12:01:51;95097.59;;;23.90;59.39
6393;BME280;3229;42.674;23.282;2022-10-31T12:04:29;95154.25;;;24.27;59.20
6393;BME280;3229;42.674;23.282;2022-10-31T12:06:58;95147.03;;;24.23;59.36
6393;BME280;3229;42.674;23.282;2022-10-31T12:09:30;95153.44;;;24.27;59.40
6393;BME280;3229;42.674;23.282;2022-10-31T12:12:11;95131.59;;;24.15;59.36
6393;BME280;3229;42.674;23.282;2022-10-31T12:14:50;95144.19;;;24.24;59.51
6393;BME280;3229;42.674;23.282;2022-10-31T12:17:28;95150.44;;;24.23;59.74
6393;BME280;3229;42.674;23.282;2022-10-31T12:20:11;95146.22;;;24.22;60.05
6393;BME280;3229;42.674;23.282;2022-10-31T12:22:48;95093.94;;;23.91;59.90
6393;BME280;3229;42.674;23.282;2022-10-31T12:25:29;95112.22;;;23.97;60.00
6393;BME280;3229;42.674;23.282;2022-10-31T12:28:19;95120.63;;;23.99;60.06
6393;BME280;3229;42.674;23.282;2022-10-31T12:30:58;95122.59;;;24.04;60.03
6393;BME280;3229;42.674;23.282;2022-10-31T12:33:46;95146.84;;;24.18;60.19
6393;BME280;3229;42.674;23.282;2022-10-31T12:36:31;95087.38;;;23.82;60.11
6393;BME280;3229;42.674;23.282;2022-10-31T12:39:17;95139.44;;;24.15;60.27
6393;BME280;3229;42.674;23.282;2022-10-31T12:41:53;95137.84;;;24.14;60.17
6393;BME280;3229;42.674;23.282;2022-10-31T12:44:44;95124.03;;;24.00;60.18
6393;BME280;3229;42.674;23.282;2022-10-31T12:47:42;95135.25;;;24.07;60.30
6393;BME280;3229;42.674;23.282;2022-10-31T12:50:25;95133.06;;;24.04;60.04
6393;BME280;3229;42.674;23.282;2022-10-31T12:53:05;95118.25;;;23.91;60.47
6393;BME280;3229;42.674;23.282;2022-10-31T12:55:48;95099.25;;;23.77;60.45
6393;BME280;3229;42.674;23.282;2022-10-31T12:58:26;95148.53;;;24.06;60.64
6393;BME280;3229;42.674;23.282;2022-10-31T13:01:06;95060.97;;;23.58;60.56
6393;BME280;3229;42.674;23.282;2022-10-31T13:03:44;95128.47;;;23.99;60.86
6393;BME280;3229;42.674;23.282;2022-10-31T13:13:19;95096.09;;;23.69;60.90
6393;BME280;3229;42.674;23.282;2022-10-31T13:26:12;95139.38;;;23.90;61.21
6393;BME280;3229;42.674;23.282;2022-10-31T13:29:10;95086.28;;;23.58;61.42
6393;BME280;3229;42.674;23.282;2022-10-31T13:31:47;95087.28;;;23.57;61.55
6393;BME280;3229;42.674;23.282;2022-10-31T13:34:32;95080.28;;;23.50;61.39
6393;BME280;3229;42.674;23.282;2022-10-31T13:37:09;95105.97;;;23.67;61.82
6393;BME280;3229;42.674;23.282;2022-10-31T13:39:51;95090.50;;;23.52;61.64
6393;BME280;3229;42.674;23.282;2022-10-31T13:42:44;95056.88;;;23.31;61.65
6393;BME280;3229;42.674;23.282;2022-10-31T13:45:23;95131.63;;;23.76;61.18
6393;BME280;3229;42.674;23.282;2022-10-31T13:48:34;95083.31;;;23.47;60.73
6393;BME280;3229;42.674;23.282;2022-10-31T13:51:12;95053.69;;;23.28;60.15
6393;BME280;3229;42.674;23.282;2022-10-31T13:53:44;95077.34;;;23.40;60.27